Ana Sayfa
METAR-TAF:

METAR-TAF

Havaalanları :

Brønnøysund, Norveç

Enlem: 65-28N, Boylam: 012-13E, yükseklik: 0 m

Güncel hava durumu gözlemi

Rapor saat 18:50 UTC de 38 dakika önce yapıldı.
Rüzgar güney/güneybatıdan 18 kt
Sıcaklık 0°C
Nem 93%
Basınç 998 hPa
Görüş mesafesi: 0800 m
kar sağanakları

METAR: ENBN 241850Z 20018KT 0800 SHSN VV010 M00/M01 Q0998

Saat: 20:28 (19:28 UTC)

Tahmin

Rapor saat 17:00 UTC de 2 saat ve 28 dakika önce yapıldı.
Ayın 24'si saat 18 UTC'den ayın 25'si saat 03 UTC'ye kadar geçerli Tahmin
Rüzgar güneybatıdan 8 kt
Görüş mesafesi 10 km veya daha fazla
1200 ft yükseklikte az bulutlu, Kümülonimbus.
3000 ft yükseklikte parçalı çok bulutlu
Geçici
ayın 24'si saat 18 UTC'den ayın 25'si saat 03 UTC'ye kadar
Rüzgar batı/kuzeybatıdan 15 kt
Görüş mesafesi: 1200 m
500 ft yükseklikte
kar sağanakları, yağmur

TAF: ENBN 241700Z 2418/2503 23008KT 9999 FEW012CB BKN030 TEMPO 2418/2503 30015KT 1200 SHSNRA VV005

4.000'den fazla havaalanı için hava durumu gözlemleri ve tahminleri (METAR ve TAF raporları).

Kullanılabilir istasyonlar harita üzerinde sarı ve kırmızı noktalarla gösterilir.

İstasyonun adını görmek için fareyi noktanın üzerinde gezdirin.

Sonrasında hava gözlem ve tahminlerini görmek için tıklayın.

Haritayı değiştirmek için: yaklaştırmak için siyah artı işaretli yeşil düğmeye ve uzaklaştırmak için de eksi işaretli düğmeye hızla tıklayın; bitişik haritalar için yeşil okları kullanın.


METAR-TAF: